sensor_id;sensor_type;location;lat;lon;timestamp;P1;durP1;ratioP1;P2;durP2;ratioP2
3155;SDS011;1588;50.892;7.082;2023-05-10T00:03:08;12.37;;;6.10;;
3155;SDS011;1588;50.892;7.082;2023-05-10T00:08:11;12.30;;;5.90;;
3155;SDS011;1588;50.892;7.082;2023-05-10T00:13:15;11.20;;;5.57;;
3155;SDS011;1588;50.892;7.082;2023-05-10T00:18:19;15.03;;;6.20;;
3155;SDS011;1588;50.892;7.082;2023-05-10T00:23:24;23.40;;;7.70;;
3155;SDS011;1588;50.892;7.082;2023-05-10T00:28:29;12.00;;;6.37;;
3155;SDS011;1588;50.892;7.082;2023-05-10T00:33:39;13.60;;;6.80;;
3155;SDS011;1588;50.892;7.082;2023-05-10T00:38:42;14.77;;;7.33;;
3155;SDS011;1588;50.892;7.082;2023-05-10T00:43:51;18.00;;;7.27;;
3155;SDS011;1588;50.892;7.082;2023-05-10T00:48:54;13.90;;;7.20;;
3155;SDS011;1588;50.892;7.082;2023-05-10T00:53:57;14.50;;;7.37;;
3155;SDS011;1588;50.892;7.082;2023-05-10T00:59:04;13.00;;;7.07;;
3155;SDS011;1588;50.892;7.082;2023-05-10T01:04:11;14.90;;;7.30;;
3155;SDS011;1588;50.892;7.082;2023-05-10T01:09:14;24.40;;;8.63;;
3155;SDS011;1588;50.892;7.082;2023-05-10T01:14:20;20.83;;;9.57;;
3155;SDS011;1588;50.892;7.082;2023-05-10T01:19:25;22.43;;;9.67;;
3155;SDS011;1588;50.892;7.082;2023-05-10T01:35:47;21.00;;;9.53;;
3155;SDS011;1588;50.892;7.082;2023-05-10T01:41:00;17.90;;;9.20;;
3155;SDS011;1588;50.892;7.082;2023-05-10T01:46:14;29.80;;;8.67;;
3155;SDS011;1588;50.892;7.082;2023-05-10T01:51:25;31.73;;;10.67;;
3155;SDS011;1588;50.892;7.082;2023-05-10T01:56:31;20.70;;;9.70;;
3155;SDS011;1588;50.892;7.082;2023-05-10T02:01:37;27.30;;;10.07;;
3155;SDS011;1588;50.892;7.082;2023-05-10T02:06:47;25.23;;;9.50;;
3155;SDS011;1588;50.892;7.082;2023-05-10T02:11:51;20.77;;;9.27;;
3155;SDS011;1588;50.892;7.082;2023-05-10T02:16:55;22.50;;;9.33;;
3155;SDS011;1588;50.892;7.082;2023-05-10T02:22:00;20.47;;;9.00;;
3155;SDS011;1588;50.892;7.082;2023-05-10T02:27:04;27.93;;;10.73;;
3155;SDS011;1588;50.892;7.082;2023-05-10T02:32:09;19.73;;;8.40;;
3155;SDS011;1588;50.892;7.082;2023-05-10T02:37:14;23.50;;;9.27;;
3155;SDS011;1588;50.892;7.082;2023-05-10T02:42:19;18.77;;;8.47;;
3155;SDS011;1588;50.892;7.082;2023-05-10T02:47:28;18.90;;;8.07;;
3155;SDS011;1588;50.892;7.082;2023-05-10T02:52:34;18.67;;;8.13;;
3155;SDS011;1588;50.892;7.082;2023-05-10T02:57:42;19.20;;;7.93;;
3155;SDS011;1588;50.892;7.082;2023-05-10T03:02:48;14.17;;;6.77;;
3155;SDS011;1588;50.892;7.082;2023-05-10T03:07:51;21.10;;;7.57;;
3155;SDS011;1588;50.892;7.082;2023-05-10T03:13:01;15.27;;;6.63;;
3155;SDS011;1588;50.892;7.082;2023-05-10T03:18:12;12.10;;;5.50;;
3155;SDS011;1588;50.892;7.082;2023-05-10T03:23:22;9.27;;;4.60;;
3155;SDS011;1588;50.892;7.082;2023-05-10T03:28:28;14.93;;;5.03;;
3155;SDS011;1588;50.892;7.082;2023-05-10T03:33:31;10.70;;;4.97;;
3155;SDS011;1588;50.892;7.082;2023-05-10T03:38:35;11.00;;;4.67;;
3155;SDS011;1588;50.892;7.082;2023-05-10T03:43:40;9.73;;;5.93;;
3155;SDS011;1588;50.892;7.082;2023-05-10T03:48:43;12.43;;;5.40;;
3155;SDS011;1588;50.892;7.082;2023-05-10T03:53:47;12.03;;;5.10;;
3155;SDS011;1588;50.892;7.082;2023-05-10T03:58:50;11.23;;;5.37;;
3155;SDS011;1588;50.892;7.082;2023-05-10T04:03:53;11.43;;;5.50;;
3155;SDS011;1588;50.892;7.082;2023-05-10T04:08:56;13.50;;;6.40;;
3155;SDS011;1588;50.892;7.082;2023-05-10T04:14:00;14.80;;;6.17;;
3155;SDS011;1588;50.892;7.082;2023-05-10T04:19:03;16.60;;;8.10;;
3155;SDS011;1588;50.892;7.082;2023-05-10T04:24:07;24.43;;;8.40;;
3155;SDS011;1588;50.892;7.082;2023-05-10T04:29:09;22.80;;;9.27;;
3155;SDS011;1588;50.892;7.082;2023-05-10T04:34:12;19.67;;;9.50;;
3155;SDS011;1588;50.892;7.082;2023-05-10T04:39:16;21.60;;;9.20;;
3155;SDS011;1588;50.892;7.082;2023-05-10T04:44:18;25.30;;;10.37;;
3155;SDS011;1588;50.892;7.082;2023-05-10T04:49:20;30.33;;;10.57;;
3155;SDS011;1588;50.892;7.082;2023-05-10T04:54:24;24.30;;;10.00;;
3155;SDS011;1588;50.892;7.082;2023-05-10T04:59:27;20.87;;;9.70;;
3155;SDS011;1588;50.892;7.082;2023-05-10T05:04:29;18.40;;;9.43;;
3155;SDS011;1588;50.892;7.082;2023-05-10T05:09:34;35.13;;;11.53;;
3155;SDS011;1588;50.892;7.082;2023-05-10T05:14:37;27.73;;;11.20;;
3155;SDS011;1588;50.892;7.082;2023-05-10T05:19:39;23.53;;;11.53;;
3155;SDS011;1588;50.892;7.082;2023-05-10T05:24:43;30.33;;;10.83;;
3155;SDS011;1588;50.892;7.082;2023-05-10T05:29:45;28.27;;;12.73;;
3155;SDS011;1588;50.892;7.082;2023-05-10T05:34:48;33.13;;;12.60;;
3155;SDS011;1588;50.892;7.082;2023-05-10T05:39:52;26.90;;;11.20;;
3155;SDS011;1588;50.892;7.082;2023-05-10T05:44:55;41.20;;;13.37;;
3155;SDS011;1588;50.892;7.082;2023-05-10T05:49:58;30.37;;;12.47;;
3155;SDS011;1588;50.892;7.082;2023-05-10T05:55:03;34.60;;;13.07;;
3155;SDS011;1588;50.892;7.082;2023-05-10T06:00:06;29.23;;;11.40;;
3155;SDS011;1588;50.892;7.082;2023-05-10T06:05:10;39.87;;;13.20;;
3155;SDS011;1588;50.892;7.082;2023-05-10T06:10:16;34.13;;;12.80;;
3155;SDS011;1588;50.892;7.082;2023-05-10T06:15:19;30.83;;;12.47;;
3155;SDS011;1588;50.892;7.082;2023-05-10T06:20:25;36.53;;;12.03;;
3155;SDS011;1588;50.892;7.082;2023-05-10T06:25:30;30.60;;;13.17;;
3155;SDS011;1588;50.892;7.082;2023-05-10T06:30:35;27.70;;;12.27;;
3155;SDS011;1588;50.892;7.082;2023-05-10T06:35:38;24.83;;;12.33;;
3155;SDS011;1588;50.892;7.082;2023-05-10T06:40:42;26.40;;;10.93;;
3155;SDS011;1588;50.892;7.082;2023-05-10T06:45:45;29.67;;;11.27;;
3155;SDS011;1588;50.892;7.082;2023-05-10T06:50:49;31.97;;;10.97;;
3155;SDS011;1588;50.892;7.082;2023-05-10T06:55:55;26.07;;;11.23;;
3155;SDS011;1588;50.892;7.082;2023-05-10T07:01:01;25.30;;;11.30;;
3155;SDS011;1588;50.892;7.082;2023-05-10T07:06:04;31.50;;;12.03;;
3155;SDS011;1588;50.892;7.082;2023-05-10T07:11:10;24.40;;;10.80;;
3155;SDS011;1588;50.892;7.082;2023-05-10T07:16:12;27.97;;;12.00;;
3155;SDS011;1588;50.892;7.082;2023-05-10T07:21:15;30.93;;;11.53;;
3155;SDS011;1588;50.892;7.082;2023-05-10T07:26:18;26.67;;;11.70;;
3155;SDS011;1588;50.892;7.082;2023-05-10T07:31:21;33.27;;;12.00;;
3155;SDS011;1588;50.892;7.082;2023-05-10T07:36:23;25.90;;;10.77;;
3155;SDS011;1588;50.892;7.082;2023-05-10T07:41:27;28.93;;;10.83;;
3155;SDS011;1588;50.892;7.082;2023-05-10T07:46:29;27.23;;;10.83;;
3155;SDS011;1588;50.892;7.082;2023-05-10T07:51:32;30.13;;;12.03;;
3155;SDS011;1588;50.892;7.082;2023-05-10T07:56:35;31.27;;;11.50;;
3155;SDS011;1588;50.892;7.082;2023-05-10T08:01:39;28.30;;;11.40;;
3155;SDS011;1588;50.892;7.082;2023-05-10T08:06:42;33.60;;;10.63;;
3155;SDS011;1588;50.892;7.082;2023-05-10T08:11:45;34.40;;;12.93;;
3155;SDS011;1588;50.892;7.082;2023-05-10T08:16:48;25.60;;;10.03;;
3155;SDS011;1588;50.892;7.082;2023-05-10T08:21:50;25.50;;;11.93;;
3155;SDS011;1588;50.892;7.082;2023-05-10T08:26:56;23.43;;;11.00;;
3155;SDS011;1588;50.892;7.082;2023-05-10T08:31:58;35.23;;;11.97;;
3155;SDS011;1588;50.892;7.082;2023-05-10T08:37:01;26.07;;;11.00;;
3155;SDS011;1588;50.892;7.082;2023-05-10T08:42:05;26.73;;;10.47;;
3155;SDS011;1588;50.892;7.082;2023-05-10T08:47:09;26.03;;;9.90;;
3155;SDS011;1588;50.892;7.082;2023-05-10T08:52:13;24.97;;;8.63;;
3155;SDS011;1588;50.892;7.082;2023-05-10T08:57:20;19.13;;;8.17;;
3155;SDS011;1588;50.892;7.082;2023-05-10T09:02:22;11.70;;;4.10;;
3155;SDS011;1588;50.892;7.082;2023-05-10T09:07:25;7.67;;;2.90;;
3155;SDS011;1588;50.892;7.082;2023-05-10T09:12:29;6.10;;;4.00;;
3155;SDS011;1588;50.892;7.082;2023-05-10T09:17:32;9.40;;;4.30;;
3155;SDS011;1588;50.892;7.082;2023-05-10T09:22:35;12.23;;;3.90;;
3155;SDS011;1588;50.892;7.082;2023-05-10T09:27:39;10.63;;;5.10;;
3155;SDS011;1588;50.892;7.082;2023-05-10T09:32:44;14.20;;;4.63;;
3155;SDS011;1588;50.892;7.082;2023-05-10T09:37:48;16.23;;;5.30;;
3155;SDS011;1588;50.892;7.082;2023-05-10T09:42:56;9.47;;;5.43;;
3155;SDS011;1588;50.892;7.082;2023-05-10T09:48:01;13.53;;;5.80;;
3155;SDS011;1588;50.892;7.082;2023-05-10T09:53:04;14.17;;;5.93;;
3155;SDS011;1588;50.892;7.082;2023-05-10T09:58:08;11.90;;;6.40;;
3155;SDS011;1588;50.892;7.082;2023-05-10T10:03:14;13.30;;;6.23;;
3155;SDS011;1588;50.892;7.082;2023-05-10T10:08:18;9.80;;;4.57;;
3155;SDS011;1588;50.892;7.082;2023-05-10T10:13:22;16.87;;;7.00;;
3155;SDS011;1588;50.892;7.082;2023-05-10T10:18:24;19.00;;;7.93;;
3155;SDS011;1588;50.892;7.082;2023-05-10T10:23:29;15.90;;;7.23;;
3155;SDS011;1588;50.892;7.082;2023-05-10T10:28:35;18.03;;;7.33;;
3155;SDS011;1588;50.892;7.082;2023-05-10T10:33:51;21.43;;;8.57;;
3155;SDS011;1588;50.892;7.082;2023-05-10T10:39:01;27.40;;;9.27;;
3155;SDS011;1588;50.892;7.082;2023-05-10T10:44:24;20.30;;;8.50;;
3155;SDS011;1588;50.892;7.082;2023-05-10T10:49:42;17.90;;;6.60;;
3155;SDS011;1588;50.892;7.082;2023-05-10T10:54:51;12.67;;;5.90;;
3155;SDS011;1588;50.892;7.082;2023-05-10T11:10:53;14.40;;;6.30;;
3155;SDS011;1588;50.892;7.082;2023-05-10T11:16:15;15.30;;;6.63;;
3155;SDS011;1588;50.892;7.082;2023-05-10T11:21:18;10.67;;;5.70;;
3155;SDS011;1588;50.892;7.082;2023-05-10T11:26:21;8.53;;;3.57;;
3155;SDS011;1588;50.892;7.082;2023-05-10T11:31:30;6.37;;;3.70;;
3155;SDS011;1588;50.892;7.082;2023-05-10T11:36:35;8.37;;;3.93;;
3155;SDS011;1588;50.892;7.082;2023-05-10T11:41:40;6.27;;;3.23;;
3155;SDS011;1588;50.892;7.082;2023-05-10T11:46:47;3.93;;;2.70;;
3155;SDS011;1588;50.892;7.082;2023-05-10T11:51:50;4.67;;;2.47;;
3155;SDS011;1588;50.892;7.082;2023-05-10T11:56:58;3.07;;;2.30;;
3155;SDS011;1588;50.892;7.082;2023-05-10T12:02:02;2.70;;;1.87;;
3155;SDS011;1588;50.892;7.082;2023-05-10T12:07:05;3.30;;;1.97;;
3155;SDS011;1588;50.892;7.082;2023-05-10T12:12:08;4.47;;;2.90;;
3155;SDS011;1588;50.892;7.082;2023-05-10T12:17:12;10.10;;;2.83;;
3155;SDS011;1588;50.892;7.082;2023-05-10T12:22:20;7.20;;;2.57;;
3155;SDS011;1588;50.892;7.082;2023-05-10T12:27:22;3.83;;;2.83;;
3155;SDS011;1588;50.892;7.082;2023-05-10T12:32:38;2.20;;;1.43;;
3155;SDS011;1588;50.892;7.082;2023-05-10T12:37:41;4.70;;;2.17;;
3155;SDS011;1588;50.892;7.082;2023-05-10T12:42:44;3.20;;;2.40;;
3155;SDS011;1588;50.892;7.082;2023-05-10T12:47:48;2.90;;;2.20;;
3155;SDS011;1588;50.892;7.082;2023-05-10T12:52:50;4.90;;;2.53;;
3155;SDS011;1588;50.892;7.082;2023-05-10T12:57:53;3.90;;;1.90;;
3155;SDS011;1588;50.892;7.082;2023-05-10T13:03:03;7.57;;;2.20;;
3155;SDS011;1588;50.892;7.082;2023-05-10T13:08:06;5.30;;;2.47;;
3155;SDS011;1588;50.892;7.082;2023-05-10T13:13:09;2.77;;;1.90;;
3155;SDS011;1588;50.892;7.082;2023-05-10T13:18:13;3.63;;;1.63;;
3155;SDS011;1588;50.892;7.082;2023-05-10T13:23:15;1.63;;;1.50;;
3155;SDS011;1588;50.892;7.082;2023-05-10T13:28:18;4.97;;;1.60;;
3155;SDS011;1588;50.892;7.082;2023-05-10T13:33:25;1.50;;;1.40;;
3155;SDS011;1588;50.892;7.082;2023-05-10T13:38:30;1.77;;;1.67;;
3155;SDS011;1588;50.892;7.082;2023-05-10T13:43:32;1.50;;;1.40;;
3155;SDS011;1588;50.892;7.082;2023-05-10T13:48:36;1.60;;;1.50;;
3155;SDS011;1588;50.892;7.082;2023-05-10T13:53:41;1.47;;;1.37;;
3155;SDS011;1588;50.892;7.082;2023-05-10T13:58:44;4.23;;;1.77;;
3155;SDS011;1588;50.892;7.082;2023-05-10T14:03:50;3.17;;;1.60;;
3155;SDS011;1588;50.892;7.082;2023-05-10T14:08:53;2.40;;;1.90;;
3155;SDS011;1588;50.892;7.082;2023-05-10T14:13:58;2.40;;;1.60;;
3155;SDS011;1588;50.892;7.082;2023-05-10T14:19:02;4.90;;;1.50;;
3155;SDS011;1588;50.892;7.082;2023-05-10T14:24:05;2.70;;;1.80;;
3155;SDS011;1588;50.892;7.082;2023-05-10T14:29:08;3.13;;;1.70;;
3155;SDS011;1588;50.892;7.082;2023-05-10T14:34:11;1.70;;;1.60;;
3155;SDS011;1588;50.892;7.082;2023-05-10T14:39:14;1.40;;;1.30;;
3155;SDS011;1588;50.892;7.082;2023-05-10T14:44:17;1.93;;;1.50;;
3155;SDS011;1588;50.892;7.082;2023-05-10T14:49:21;5.57;;;1.50;;
3155;SDS011;1588;50.892;7.082;2023-05-10T14:54:27;3.03;;;1.50;;
3155;SDS011;1588;50.892;7.082;2023-05-10T14:59:30;2.60;;;1.90;;
3155;SDS011;1588;50.892;7.082;2023-05-10T15:04:34;1.43;;;1.33;;
3155;SDS011;1588;50.892;7.082;2023-05-10T15:09:36;1.67;;;1.50;;
3155;SDS011;1588;50.892;7.082;2023-05-10T15:14:38;1.47;;;1.37;;
3155;SDS011;1588;50.892;7.082;2023-05-10T15:19:44;3.00;;;1.37;;
3155;SDS011;1588;50.892;7.082;2023-05-10T15:24:49;2.80;;;1.63;;
3155;SDS011;1588;50.892;7.082;2023-05-10T15:29:51;1.47;;;1.30;;
3155;SDS011;1588;50.892;7.082;2023-05-10T15:34:55;2.10;;;1.50;;
3155;SDS011;1588;50.892;7.082;2023-05-10T15:40:00;1.77;;;1.40;;
3155;SDS011;1588;50.892;7.082;2023-05-10T15:45:04;1.40;;;1.30;;
3155;SDS011;1588;50.892;7.082;2023-05-10T15:50:09;1.93;;;1.60;;
3155;SDS011;1588;50.892;7.082;2023-05-10T15:55:16;1.93;;;1.80;;
3155;SDS011;1588;50.892;7.082;2023-05-10T16:00:18;1.60;;;1.50;;
3155;SDS011;1588;50.892;7.082;2023-05-10T16:05:22;6.87;;;3.20;;
3155;SDS011;1588;50.892;7.082;2023-05-10T16:10:24;7.20;;;4.13;;
3155;SDS011;1588;50.892;7.082;2023-05-10T16:15:26;24.07;;;5.17;;
3155;SDS011;1588;50.892;7.082;2023-05-10T16:20:30;5.17;;;3.50;;
3155;SDS011;1588;50.892;7.082;2023-05-10T16:25:34;2.80;;;1.90;;
3155;SDS011;1588;50.892;7.082;2023-05-10T16:30:36;3.90;;;2.50;;
3155;SDS011;1588;50.892;7.082;2023-05-10T16:35:42;3.13;;;2.83;;
3155;SDS011;1588;50.892;7.082;2023-05-10T16:40:45;5.33;;;2.70;;
3155;SDS011;1588;50.892;7.082;2023-05-10T16:45:47;4.20;;;3.53;;
3155;SDS011;1588;50.892;7.082;2023-05-10T16:50:51;7.23;;;4.03;;
3155;SDS011;1588;50.892;7.082;2023-05-10T16:55:53;5.83;;;3.27;;
3155;SDS011;1588;50.892;7.082;2023-05-10T17:00:55;12.50;;;2.97;;
3155;SDS011;1588;50.892;7.082;2023-05-10T17:05:59;8.20;;;3.03;;
3155;SDS011;1588;50.892;7.082;2023-05-10T17:11:02;7.70;;;3.37;;
3155;SDS011;1588;50.892;7.082;2023-05-10T17:16:04;3.33;;;1.97;;
3155;SDS011;1588;50.892;7.082;2023-05-10T17:21:08;2.17;;;1.97;;
3155;SDS011;1588;50.892;7.082;2023-05-10T17:26:11;8.27;;;2.80;;
3155;SDS011;1588;50.892;7.082;2023-05-10T17:31:14;3.37;;;2.53;;
3155;SDS011;1588;50.892;7.082;2023-05-10T17:36:17;9.83;;;3.30;;
3155;SDS011;1588;50.892;7.082;2023-05-10T17:41:21;2.53;;;2.33;;
3155;SDS011;1588;50.892;7.082;2023-05-10T17:46:29;4.90;;;2.83;;
3155;SDS011;1588;50.892;7.082;2023-05-10T17:51:34;4.90;;;2.97;;
3155;SDS011;1588;50.892;7.082;2023-05-10T17:56:36;6.60;;;3.07;;
3155;SDS011;1588;50.892;7.082;2023-05-10T18:01:39;4.93;;;2.73;;
3155;SDS011;1588;50.892;7.082;2023-05-10T18:06:46;9.43;;;2.90;;
3155;SDS011;1588;50.892;7.082;2023-05-10T18:12:01;4.00;;;3.10;;
3155;SDS011;1588;50.892;7.082;2023-05-10T18:17:04;7.00;;;3.60;;
3155;SDS011;1588;50.892;7.082;2023-05-10T18:22:08;6.20;;;3.40;;
3155;SDS011;1588;50.892;7.082;2023-05-10T18:27:10;5.47;;;3.70;;
3155;SDS011;1588;50.892;7.082;2023-05-10T18:32:14;7.83;;;3.53;;
3155;SDS011;1588;50.892;7.082;2023-05-10T18:37:18;7.00;;;4.07;;
3155;SDS011;1588;50.892;7.082;2023-05-10T18:42:21;7.17;;;3.70;;
3155;SDS011;1588;50.892;7.082;2023-05-10T18:47:26;6.43;;;4.17;;
3155;SDS011;1588;50.892;7.082;2023-05-10T18:52:30;6.90;;;3.73;;
3155;SDS011;1588;50.892;7.082;2023-05-10T18:57:33;9.30;;;4.43;;
3155;SDS011;1588;50.892;7.082;2023-05-10T19:02:40;15.03;;;5.40;;
3155;SDS011;1588;50.892;7.082;2023-05-10T19:07:44;7.40;;;4.60;;
3155;SDS011;1588;50.892;7.082;2023-05-10T19:12:48;8.90;;;4.20;;
3155;SDS011;1588;50.892;7.082;2023-05-10T19:17:51;5.37;;;3.70;;
3155;SDS011;1588;50.892;7.082;2023-05-10T19:22:54;11.93;;;4.00;;
3155;SDS011;1588;50.892;7.082;2023-05-10T19:27:57;12.23;;;4.37;;
3155;SDS011;1588;50.892;7.082;2023-05-10T19:33:00;7.77;;;4.60;;
3155;SDS011;1588;50.892;7.082;2023-05-10T19:38:04;9.00;;;5.17;;
3155;SDS011;1588;50.892;7.082;2023-05-10T19:43:08;10.60;;;5.40;;
3155;SDS011;1588;50.892;7.082;2023-05-10T19:48:13;12.87;;;6.90;;
3155;SDS011;1588;50.892;7.082;2023-05-10T19:53:16;13.77;;;7.10;;
3155;SDS011;1588;50.892;7.082;2023-05-10T19:58:19;18.60;;;6.87;;
3155;SDS011;1588;50.892;7.082;2023-05-10T20:03:21;11.90;;;6.60;;
3155;SDS011;1588;50.892;7.082;2023-05-10T20:08:25;15.77;;;7.97;;
3155;SDS011;1588;50.892;7.082;2023-05-10T20:13:27;15.20;;;7.97;;
3155;SDS011;1588;50.892;7.082;2023-05-10T20:18:30;16.80;;;7.83;;
3155;SDS011;1588;50.892;7.082;2023-05-10T20:23:34;16.10;;;8.13;;
3155;SDS011;1588;50.892;7.082;2023-05-10T20:28:36;19.70;;;7.60;;
3155;SDS011;1588;50.892;7.082;2023-05-10T20:33:39;17.20;;;7.83;;
3155;SDS011;1588;50.892;7.082;2023-05-10T20:38:42;16.00;;;8.30;;
3155;SDS011;1588;50.892;7.082;2023-05-10T20:43:46;23.63;;;8.23;;
3155;SDS011;1588;50.892;7.082;2023-05-10T20:48:48;14.60;;;7.40;;
3155;SDS011;1588;50.892;7.082;2023-05-10T20:53:51;14.93;;;7.70;;
3155;SDS011;1588;50.892;7.082;2023-05-10T20:58:54;15.70;;;8.30;;
3155;SDS011;1588;50.892;7.082;2023-05-10T21:03:56;14.93;;;8.00;;
3155;SDS011;1588;50.892;7.082;2023-05-10T21:09:00;21.23;;;10.20;;
3155;SDS011;1588;50.892;7.082;2023-05-10T21:14:02;18.43;;;9.40;;
3155;SDS011;1588;50.892;7.082;2023-05-10T21:19:05;19.13;;;9.37;;
3155;SDS011;1588;50.892;7.082;2023-05-10T21:24:09;19.37;;;9.23;;
3155;SDS011;1588;50.892;7.082;2023-05-10T21:29:11;20.90;;;10.93;;
3155;SDS011;1588;50.892;7.082;2023-05-10T21:34:14;17.57;;;9.63;;
3155;SDS011;1588;50.892;7.082;2023-05-10T21:39:18;19.33;;;9.90;;
3155;SDS011;1588;50.892;7.082;2023-05-10T21:44:24;24.13;;;9.33;;
3155;SDS011;1588;50.892;7.082;2023-05-10T21:49:26;21.37;;;9.97;;
3155;SDS011;1588;50.892;7.082;2023-05-10T21:54:32;20.43;;;10.03;;
3155;SDS011;1588;50.892;7.082;2023-05-10T21:59:37;24.67;;;10.37;;
3155;SDS011;1588;50.892;7.082;2023-05-10T22:04:40;24.47;;;10.93;;
3155;SDS011;1588;50.892;7.082;2023-05-10T22:09:43;21.87;;;10.17;;
3155;SDS011;1588;50.892;7.082;2023-05-10T22:14:45;20.90;;;9.70;;
3155;SDS011;1588;50.892;7.082;2023-05-10T22:19:48;24.67;;;11.33;;
3155;SDS011;1588;50.892;7.082;2023-05-10T22:24:51;33.33;;;10.50;;
3155;SDS011;1588;50.892;7.082;2023-05-10T22:29:53;29.53;;;11.93;;
3155;SDS011;1588;50.892;7.082;2023-05-10T22:34:57;28.63;;;12.10;;
3155;SDS011;1588;50.892;7.082;2023-05-10T22:40:01;34.27;;;13.77;;
3155;SDS011;1588;50.892;7.082;2023-05-10T22:45:03;32.27;;;12.70;;
3155;SDS011;1588;50.892;7.082;2023-05-10T22:50:07;29.63;;;12.90;;
3155;SDS011;1588;50.892;7.082;2023-05-10T22:55:11;31.40;;;12.77;;
3155;SDS011;1588;50.892;7.082;2023-05-10T23:00:14;34.17;;;14.03;;
3155;SDS011;1588;50.892;7.082;2023-05-10T23:05:17;32.17;;;13.07;;
3155;SDS011;1588;50.892;7.082;2023-05-10T23:10:21;37.17;;;14.33;;
3155;SDS011;1588;50.892;7.082;2023-05-10T23:15:23;14.30;;;7.80;;
3155;SDS011;1588;50.892;7.082;2023-05-10T23:20:25;10.07;;;4.87;;
3155;SDS011;1588;50.892;7.082;2023-05-10T23:25:29;5.03;;;3.00;;
3155;SDS011;1588;50.892;7.082;2023-05-10T23:30:32;2.87;;;2.00;;
3155;SDS011;1588;50.892;7.082;2023-05-10T23:35:34;4.60;;;1.40;;
3155;SDS011;1588;50.892;7.082;2023-05-10T23:40:40;1.40;;;1.30;;
3155;SDS011;1588;50.892;7.082;2023-05-10T23:45:42;5.23;;;1.50;;
3155;SDS011;1588;50.892;7.082;2023-05-10T23:50:55;2.57;;;1.70;;
3155;SDS011;1588;50.892;7.082;2023-05-10T23:56:02;2.27;;;1.83;;
